Polk Army Air Field
KPOE : now visible

Airfield :











YOU CAN JOIN US ON...

 
LOGIN :

Register | Disclaimer

   EN    FR    IT 

 









Legend :    VFR   Marginal VFR   IFR   Intensive IFR   Very Intensive IFR
Visi :
Ceiling :
>= 8 km
>= 3000ft
5 to 8 km
1000 to 3000 ft
1500m to 5 km
500 to 1000 ft
800 to 1500m
200 to 500 ft
< 800m
< 200 ft
Symbols :   Thunderstorms  Fog  Heavy snow  Heavy precipitations  Wind > 20 kt






- Airport Elevation : 330 ft


KPOE - Polk Army Air Field

CURRENT METAR :
  • 282058Z AUTO 00000KT 8SM VCTS SCT095 BKN170 22/20 A2994 RMK AO2 RAB08E20RAB24E56 SLP139 P0001 60001 57019

EXPIRED METARs :
  • 282024Z AUTO 00000KT 9SM -RA SCT100 23/19 A2996 RMK AO2 LTG DSNT SE AND SW RAB08E20RAB24 SLP145
  • 282008Z AUTO 36003KT 10SM -RA VCTS BKN100 23/19 A2996 RMK AO2 RAB08 SLP145
  • 281958Z AUTO 36004KT 10SM VCTS BKN095 OVC200 23/19 A2996 RMK AO2 SLP145 T02330185
  • 281858Z AUTO 35007KT 10SM BKN100 25/20 A2996 RMK AO2 LTG DSNT SW SLP145 T02500195

TAF AMD TAF KPOE
Valid from the 28 at 19:00 until the 29 at 22:00 UTC


281930Z 2819/2922 VRB06KT 8000 -SHRA BKN080 QNH2994INS
TEMPO 2821/2823 24015G25KT 6000 -TSRA BKN030CB
BECMG 2823/2824 VRB06KT 9999 NSW SCT030 QNH2992INS
BECMG 2901/2902 VRB06KT 8000 BR BKN020 QNH2995INS
BECMG 2906/2907 VRB06KT 3200 BR BKN010 QNH2996INS
BECMG 2915/2916 36012KT 8000 BR SCT020 QNH3003INS
BECMG 2917/2918 35010G15KT 9999 NSW FEW030 QNH2997INS TX28/2821Z TN20/2912Z
KZHU FIR / North America



MET'MAP, your aeronautical weather chart ! - Copyright ORBIFLY December 2007 - Disclaimer

ORBIFLY MET'MAP TEAM :

Programming & Development : Alexandra Zaïnal
Concept & original design : Baudouin d'Aumeries
Assistance for programming : Marc-Olivier Méhu
Technical & hardware support : Manuel Goepfert

Contact : metmap@orbifly.com




SOURCES & CREDITS :

   NOAA       Earth
Advisory